sensor_id;sensor_type;location;lat;lon;timestamp;pressure;altitude;pressure_sealevel;temperature;humidity
50684;BME280;36654;45.042;38.994;2023-03-03T00:00:13;101754.69;;;1.98;50.58
50684;BME280;36654;45.042;38.994;2023-03-03T00:02:39;101735.25;;;1.94;50.73
50684;BME280;36654;45.042;38.994;2023-03-03T00:05:05;101748.72;;;2.01;50.44
50684;BME280;36654;45.042;38.994;2023-03-03T00:07:31;101730.03;;;1.94;50.51
50684;BME280;36654;45.042;38.994;2023-03-03T00:09:57;101747.13;;;2.03;50.25
50684;BME280;36654;45.042;38.994;2023-03-03T00:12:28;101724.63;;;1.91;50.16
50684;BME280;36654;45.042;38.994;2023-03-03T00:14:54;101730.25;;;1.98;50.03
50684;BME280;36654;45.042;38.994;2023-03-03T00:17:25;101744.22;;;1.98;49.81
50684;BME280;36654;45.042;38.994;2023-03-03T00:19:52;101734.19;;;1.91;49.60
50684;BME280;36654;45.042;38.994;2023-03-03T00:22:29;101758.44;;;1.88;49.62
50684;BME280;36654;45.042;38.994;2023-03-03T00:25:00;101731.91;;;1.82;49.83
50684;BME280;36654;45.042;38.994;2023-03-03T00:27:45;101740.19;;;1.75;50.12
50684;BME280;36654;45.042;38.994;2023-03-03T00:30:23;101728.06;;;1.77;50.39
50684;BME280;36654;45.042;38.994;2023-03-03T00:32:55;101741.06;;;1.76;50.72
50684;BME280;36654;45.042;38.994;2023-03-03T00:35:27;101727.88;;;1.74;51.09
50684;BME280;36654;45.042;38.994;2023-03-03T00:38:09;101739.97;;;1.72;51.27
50684;BME280;36654;45.042;38.994;2023-03-03T00:40:37;101706.72;;;1.56;51.27
50684;BME280;36654;45.042;38.994;2023-03-03T00:43:24;101723.91;;;1.66;51.89
50684;BME280;36654;45.042;38.994;2023-03-03T00:45:56;101721.00;;;1.61;52.02
50684;BME280;36654;45.042;38.994;2023-03-03T00:48:41;101725.50;;;1.64;52.17
50684;BME280;36654;45.042;38.994;2023-03-03T00:51:33;101720.88;;;1.60;52.55
50684;BME280;36654;45.042;38.994;2023-03-03T00:53:59;101704.66;;;1.50;52.72
50684;BME280;36654;45.042;38.994;2023-03-03T00:56:26;101724.44;;;1.60;52.92
50684;BME280;36654;45.042;38.994;2023-03-03T00:58:52;101663.00;;;1.25;52.95
50684;BME280;36654;45.042;38.994;2023-03-03T01:01:18;101676.53;;;1.33;53.09
50684;BME280;36654;45.042;38.994;2023-03-03T01:03:44;101723.31;;;1.57;53.15
50684;BME280;36654;45.042;38.994;2023-03-03T01:06:10;101695.50;;;1.44;53.22
50684;BME280;36654;45.042;38.994;2023-03-03T01:08:37;101735.38;;;1.55;53.36
50684;BME280;36654;45.042;38.994;2023-03-03T01:11:25;101726.34;;;1.49;53.36
50684;BME280;36654;45.042;38.994;2023-03-03T01:13:52;101715.69;;;1.46;53.46
50684;BME280;36654;45.042;38.994;2023-03-03T01:16:19;101726.34;;;1.49;53.53
50684;BME280;36654;45.042;38.994;2023-03-03T01:18:45;101708.19;;;1.38;53.59
50684;BME280;36654;45.042;38.994;2023-03-03T01:21:12;101722.75;;;1.47;53.45
50684;BME280;36654;45.042;38.994;2023-03-03T01:23:37;101710.81;;;1.38;53.04
50684;BME280;36654;45.042;38.994;2023-03-03T01:26:04;101717.53;;;1.47;52.80
50684;BME280;36654;45.042;38.994;2023-03-03T01:28:29;101716.81;;;1.50;52.83
50684;BME280;36654;45.042;38.994;2023-03-03T01:31:00;101712.72;;;1.40;52.95
50684;BME280;36654;45.042;38.994;2023-03-03T01:33:26;101715.81;;;1.48;52.69
50684;BME280;36654;45.042;38.994;2023-03-03T01:35:52;101715.00;;;1.49;52.89
50684;BME280;36654;45.042;38.994;2023-03-03T01:38:17;101667.81;;;1.19;53.01
50684;BME280;36654;45.042;38.994;2023-03-03T01:40:51;101723.66;;;1.48;53.03
50684;BME280;36654;45.042;38.994;2023-03-03T01:43:17;101683.38;;;1.31;52.94
50684;BME280;36654;45.042;38.994;2023-03-03T01:48:30;101691.81;;;1.27;55.25
50684;BME280;36654;45.042;38.994;2023-03-03T01:51:02;101706.78;;;1.29;57.24
50684;BME280;36654;45.042;38.994;2023-03-03T01:56:00;101685.41;;;1.08;59.65
50684;BME280;36654;45.042;38.994;2023-03-03T01:58:31;101710.00;;;1.12;60.42
50684;BME280;36654;45.042;38.994;2023-03-03T02:01:01;101694.78;;;1.05;60.98
50684;BME280;36654;45.042;38.994;2023-03-03T02:03:28;101696.69;;;0.94;62.06
50684;BME280;36654;45.042;38.994;2023-03-03T02:05:59;101698.50;;;0.95;62.80
50684;BME280;36654;45.042;38.994;2023-03-03T02:08:33;101674.78;;;0.79;63.16
50684;BME280;36654;45.042;38.994;2023-03-03T02:11:03;101655.72;;;0.67;63.48
50684;BME280;36654;45.042;38.994;2023-03-03T02:13:30;101682.75;;;0.80;63.93
50684;BME280;36654;45.042;38.994;2023-03-03T02:15:55;101674.59;;;0.76;64.21
50684;BME280;36654;45.042;38.994;2023-03-03T02:18:21;101658.31;;;0.67;64.49
50684;BME280;36654;45.042;38.994;2023-03-03T02:26:12;101673.41;;;0.71;64.77
50684;BME280;36654;45.042;38.994;2023-03-03T02:28:39;101667.38;;;0.58;64.85
50684;BME280;36654;45.042;38.994;2023-03-03T02:31:10;101669.97;;;0.58;64.98
50684;BME280;36654;45.042;38.994;2023-03-03T02:33:44;101678.00;;;0.61;64.94
50684;BME280;36654;45.042;38.994;2023-03-03T02:36:16;101671.28;;;0.65;65.24
50684;BME280;36654;45.042;38.994;2023-03-03T02:41:46;101663.34;;;0.63;65.45
50684;BME280;36654;45.042;38.994;2023-03-03T02:44:18;101653.31;;;0.56;65.20
50684;BME280;36654;45.042;38.994;2023-03-03T02:46:45;101655.91;;;0.56;65.65
50684;BME280;36654;45.042;38.994;2023-03-03T02:49:18;101664.16;;;0.62;65.48
50684;BME280;36654;45.042;38.994;2023-03-03T02:51:44;101641.28;;;0.45;65.66
50684;BME280;36654;45.042;38.994;2023-03-03T02:54:11;101672.00;;;0.62;65.71
50684;BME280;36654;45.042;38.994;2023-03-03T02:56:37;101680.59;;;0.61;65.78
50684;BME280;36654;45.042;38.994;2023-03-03T02:59:04;101668.38;;;0.60;65.63
50684;BME280;36654;45.042;38.994;2023-03-03T03:01:30;101664.63;;;0.57;65.60
50684;BME280;36654;45.042;38.994;2023-03-03T03:04:11;101668.38;;;0.60;65.81
50684;BME280;36654;45.042;38.994;2023-03-03T03:06:37;101587.25;;;0.17;65.88
50684;BME280;36654;45.042;38.994;2023-03-03T03:09:04;101667.38;;;0.58;66.15
50684;BME280;36654;45.042;38.994;2023-03-03T03:11:30;101669.06;;;0.58;66.33
50684;BME280;36654;45.042;38.994;2023-03-03T03:13:55;101663.75;;;0.56;66.30
50684;BME280;36654;45.042;38.994;2023-03-03T03:16:21;101654.13;;;0.55;66.48
50684;BME280;36654;45.042;38.994;2023-03-03T03:18:47;101669.78;;;0.55;66.53
50684;BME280;36654;45.042;38.994;2023-03-03T03:21:15;101647.28;;;0.44;66.58
50684;BME280;36654;45.042;38.994;2023-03-03T03:23:41;101618.78;;;0.34;66.67
50684;BME280;36654;45.042;38.994;2023-03-03T03:26:07;101663.63;;;0.55;66.70
50684;BME280;36654;45.042;38.994;2023-03-03T03:28:33;101661.84;;;0.54;66.98
50684;BME280;36654;45.042;38.994;2023-03-03T03:30:59;101646.88;;;0.51;67.06
50684;BME280;36654;45.042;38.994;2023-03-03T03:33:25;101654.81;;;0.53;67.06
50684;BME280;36654;45.042;38.994;2023-03-03T03:35:52;101630.41;;;0.39;66.92
50684;BME280;36654;45.042;38.994;2023-03-03T03:38:21;101659.03;;;0.51;67.34
50684;BME280;36654;45.042;38.994;2023-03-03T03:40:47;101633.13;;;0.40;67.38
50684;BME280;36654;45.042;38.994;2023-03-03T03:43:12;101630.84;;;0.45;67.50
50684;BME280;36654;45.042;38.994;2023-03-03T03:45:40;101637.25;;;0.50;67.67
50684;BME280;36654;45.042;38.994;2023-03-03T03:48:06;101623.22;;;0.48;67.95
50684;BME280;36654;45.042;38.994;2023-03-03T03:50:31;101646.06;;;0.52;67.87
50684;BME280;36654;45.042;38.994;2023-03-03T03:52:57;101628.63;;;0.51;68.01
50684;BME280;36654;45.042;38.994;2023-03-03T03:55:22;101561.16;;;0.17;68.25
50684;BME280;36654;45.042;38.994;2023-03-03T03:57:48;101625.41;;;0.55;68.22
50684;BME280;36654;45.042;38.994;2023-03-03T04:00:14;101616.38;;;0.50;68.17
50684;BME280;36654;45.042;38.994;2023-03-03T04:02:40;101636.25;;;0.61;68.25
50684;BME280;36654;45.042;38.994;2023-03-03T04:05:06;101621.88;;;0.55;68.41
50684;BME280;36654;45.042;38.994;2023-03-03T04:07:32;101622.59;;;0.66;68.24
50684;BME280;36654;45.042;38.994;2023-03-03T04:09:58;101629.03;;;0.71;68.02
50684;BME280;36654;45.042;38.994;2023-03-03T04:12:24;101622.41;;;0.76;68.21
50684;BME280;36654;45.042;38.994;2023-03-03T04:14:49;101621.16;;;0.84;68.31
50684;BME280;36654;45.042;38.994;2023-03-03T04:17:19;101624.09;;;0.89;68.05
50684;BME280;36654;45.042;38.994;2023-03-03T04:19:45;101571.78;;;0.74;68.08
50684;BME280;36654;45.042;38.994;2023-03-03T04:22:11;101609.16;;;1.14;68.00
50684;BME280;36654;45.042;38.994;2023-03-03T04:24:39;101602.50;;;1.33;67.40
50684;BME280;36654;45.042;38.994;2023-03-03T04:27:05;101604.91;;;1.58;67.01
50684;BME280;36654;45.042;38.994;2023-03-03T04:29:31;101615.16;;;1.98;66.33
50684;BME280;36654;45.042;38.994;2023-03-03T04:31:56;101611.28;;;2.35;65.63
50684;BME280;36654;45.042;38.994;2023-03-03T04:34:22;101621.81;;;2.52;64.64
50684;BME280;36654;45.042;38.994;2023-03-03T04:36:48;101609.28;;;2.46;64.01
50684;BME280;36654;45.042;38.994;2023-03-03T04:39:13;101591.44;;;2.24;63.81
50684;BME280;36654;45.042;38.994;2023-03-03T04:41:39;101604.72;;;2.27;63.57
50684;BME280;36654;45.042;38.994;2023-03-03T04:44:05;101601.53;;;2.18;63.57
50684;BME280;36654;45.042;38.994;2023-03-03T04:46:30;101603.72;;;2.10;63.62
50684;BME280;36654;45.042;38.994;2023-03-03T04:48:56;101588.63;;;1.91;64.01
50684;BME280;36654;45.042;38.994;2023-03-03T04:51:22;101597.13;;;1.87;63.82
50684;BME280;36654;45.042;38.994;2023-03-03T04:53:47;101602.53;;;1.90;64.15
50684;BME280;36654;45.042;38.994;2023-03-03T04:56:13;101533.16;;;1.53;64.07
50684;BME280;36654;45.042;38.994;2023-03-03T04:58:39;101596.84;;;1.83;64.28
50684;BME280;36654;45.042;38.994;2023-03-03T05:01:05;101597.56;;;1.80;64.43
50684;BME280;36654;45.042;38.994;2023-03-03T05:03:31;101554.78;;;1.50;64.61
50684;BME280;36654;45.042;38.994;2023-03-03T05:05:56;101580.31;;;1.69;64.49
50684;BME280;36654;45.042;38.994;2023-03-03T05:08:22;101593.06;;;1.78;64.52
50684;BME280;36654;45.042;38.994;2023-03-03T05:10:52;101595.31;;;1.86;64.38
50684;BME280;36654;45.042;38.994;2023-03-03T05:13:18;101576.09;;;1.86;64.21
50684;BME280;36654;45.042;38.994;2023-03-03T05:15:49;101601.25;;;1.99;64.09
50684;BME280;36654;45.042;38.994;2023-03-03T05:18:14;101544.53;;;1.68;63.99
50684;BME280;36654;45.042;38.994;2023-03-03T05:20:40;101589.00;;;1.98;63.94
50684;BME280;36654;45.042;38.994;2023-03-03T05:23:06;101587.47;;;2.01;63.85
50684;BME280;36654;45.042;38.994;2023-03-03T05:25:32;101573.94;;;1.93;63.86
50684;BME280;36654;45.042;38.994;2023-03-03T05:27:57;101567.44;;;2.02;64.00
50684;BME280;36654;45.042;38.994;2023-03-03T05:30:23;101573.03;;;2.08;63.65
50684;BME280;36654;45.042;38.994;2023-03-03T05:32:49;101536.16;;;1.88;63.61
50684;BME280;36654;45.042;38.994;2023-03-03T05:35:14;101582.22;;;2.16;63.70
50684;BME280;36654;45.042;38.994;2023-03-03T05:37:40;101593.25;;;2.25;63.31
50684;BME280;36654;45.042;38.994;2023-03-03T05:40:11;101580.97;;;2.24;63.27
50684;BME280;36654;45.042;38.994;2023-03-03T05:42:37;101594.25;;;2.27;62.57
50684;BME280;36654;45.042;38.994;2023-03-03T05:45:03;101567.88;;;2.24;62.75
50684;BME280;36654;45.042;38.994;2023-03-03T05:47:28;101578.25;;;2.37;62.54
50684;BME280;36654;45.042;38.994;2023-03-03T05:49:54;101578.25;;;2.37;62.03
50684;BME280;36654;45.042;38.994;2023-03-03T05:52:20;101585.16;;;2.52;62.17
50684;BME280;36654;45.042;38.994;2023-03-03T05:54:46;101580.19;;;2.56;61.93
50684;BME280;36654;45.042;38.994;2023-03-03T05:57:11;101577.84;;;2.61;61.96
50684;BME280;36654;45.042;38.994;2023-03-03T05:59:37;101581.63;;;2.66;61.91
50684;BME280;36654;45.042;38.994;2023-03-03T06:02:03;101588.69;;;2.67;61.81
50684;BME280;36654;45.042;38.994;2023-03-03T06:04:28;101548.78;;;2.56;61.78
50684;BME280;36654;45.042;38.994;2023-03-03T06:06:54;101573.47;;;2.76;61.68
50684;BME280;36654;45.042;38.994;2023-03-03T06:09:19;101577.91;;;2.77;61.66
50684;BME280;36654;45.042;38.994;2023-03-03T06:11:45;101576.09;;;2.76;61.47
50684;BME280;36654;45.042;38.994;2023-03-03T06:14:11;101577.44;;;2.85;61.43
50684;BME280;36654;45.042;38.994;2023-03-03T06:16:36;101583.72;;;2.88;61.29
50684;BME280;36654;45.042;38.994;2023-03-03T06:19:05;101556.28;;;2.81;61.32
50684;BME280;36654;45.042;38.994;2023-03-03T06:21:30;101565.81;;;2.96;61.27
50684;BME280;36654;45.042;38.994;2023-03-03T06:23:56;101560.09;;;3.03;61.01
50684;BME280;36654;45.042;38.994;2023-03-03T06:26:22;101558.72;;;3.10;60.53
50684;BME280;36654;45.042;38.994;2023-03-03T06:28:48;101569.63;;;3.17;60.02
50684;BME280;36654;45.042;38.994;2023-03-03T06:31:14;101518.81;;;2.99;59.99
50684;BME280;36654;45.042;38.994;2023-03-03T06:33:40;101548.19;;;3.24;59.17
50684;BME280;36654;45.042;38.994;2023-03-03T06:36:08;101550.47;;;3.35;58.44
50684;BME280;36654;45.042;38.994;2023-03-03T06:38:35;101554.38;;;3.43;57.90
50684;BME280;36654;45.042;38.994;2023-03-03T06:41:00;101547.50;;;3.45;57.56
50684;BME280;36654;45.042;38.994;2023-03-03T06:43:28;101554.88;;;3.52;57.18
50684;BME280;36654;45.042;38.994;2023-03-03T06:45:54;101543.72;;;3.56;57.19
50684;BME280;36654;45.042;38.994;2023-03-03T06:48:19;101532.25;;;3.54;56.95
50684;BME280;36654;45.042;38.994;2023-03-03T06:50:45;101535.34;;;3.63;57.02
50684;BME280;36654;45.042;38.994;2023-03-03T06:53:16;101529.47;;;3.67;56.88
50684;BME280;36654;45.042;38.994;2023-03-03T06:55:42;101541.09;;;3.73;56.77
50684;BME280;36654;45.042;38.994;2023-03-03T06:58:14;101521.09;;;3.75;56.84
50684;BME280;36654;45.042;38.994;2023-03-03T07:00:45;101528.75;;;3.88;56.58
50684;BME280;36654;45.042;38.994;2023-03-03T07:05:38;101510.03;;;3.98;56.31
50684;BME280;36654;45.042;38.994;2023-03-03T07:08:18;101521.13;;;4.10;55.87
50684;BME280;36654;45.042;38.994;2023-03-03T07:10:45;101515.13;;;4.13;55.71
50684;BME280;36654;45.042;38.994;2023-03-03T07:15:45;101477.88;;;4.02;56.13
50684;BME280;36654;45.042;38.994;2023-03-03T07:21:32;101500.38;;;4.33;56.37
50684;BME280;36654;45.042;38.994;2023-03-03T07:24:24;101496.09;;;4.35;56.41
50684;BME280;36654;45.042;38.994;2023-03-03T07:26:52;101447.13;;;4.18;56.54
50684;BME280;36654;45.042;38.994;2023-03-03T07:31:48;101473.78;;;4.63;56.11
50684;BME280;36654;45.042;38.994;2023-03-03T07:34:24;101473.38;;;4.73;55.98
50684;BME280;36654;45.042;38.994;2023-03-03T07:36:57;101475.47;;;4.80;55.66
50684;BME280;36654;45.042;38.994;2023-03-03T07:39:38;101293.78;;;3.93;55.58
50684;BME280;36654;45.042;38.994;2023-03-03T07:42:21;101468.97;;;5.11;54.75
50684;BME280;36654;45.042;38.994;2023-03-03T07:44:52;101434.25;;;4.98;54.24
50684;BME280;36654;45.042;38.994;2023-03-03T07:47:22;101467.00;;;5.26;54.03
50684;BME280;36654;45.042;38.994;2023-03-03T07:49:49;101460.38;;;5.34;54.00
50684;BME280;36654;45.042;38.994;2023-03-03T07:52:40;101446.81;;;5.45;53.66
50684;BME280;36654;45.042;38.994;2023-03-03T07:55:32;101446.63;;;5.61;53.80
50684;BME280;36654;45.042;38.994;2023-03-03T08:03:56;101451.25;;;5.88;53.16
50684;BME280;36654;45.042;38.994;2023-03-03T08:06:36;101438.63;;;6.00;53.48
50684;BME280;36654;45.042;38.994;2023-03-03T08:14:39;101397.81;;;6.11;52.85
50684;BME280;36654;45.042;38.994;2023-03-03T08:17:14;101427.44;;;6.49;52.46
50684;BME280;36654;45.042;38.994;2023-03-03T08:19:42;101425.00;;;6.55;52.11
50684;BME280;36654;45.042;38.994;2023-03-03T08:22:32;101420.34;;;6.48;52.05
50684;BME280;36654;45.042;38.994;2023-03-03T08:25:02;101419.53;;;6.49;52.17
50684;BME280;36654;45.042;38.994;2023-03-03T08:27:28;101429.03;;;6.45;52.55
50684;BME280;36654;45.042;38.994;2023-03-03T08:29:53;101410.78;;;6.50;52.77
50684;BME280;36654;45.042;38.994;2023-03-03T08:32:19;101414.22;;;6.72;52.55
50684;BME280;36654;45.042;38.994;2023-03-03T08:34:44;101394.44;;;6.83;51.83
50684;BME280;36654;45.042;38.994;2023-03-03T08:37:10;101382.31;;;6.88;51.85
50684;BME280;36654;45.042;38.994;2023-03-03T08:39:36;101366.28;;;6.82;51.53
50684;BME280;36654;45.042;38.994;2023-03-03T08:42:01;101379.59;;;7.10;51.38
50684;BME280;36654;45.042;38.994;2023-03-03T08:44:27;101363.88;;;7.13;51.50
50684;BME280;36654;45.042;38.994;2023-03-03T08:46:52;101368.94;;;7.31;51.10
50684;BME280;36654;45.042;38.994;2023-03-03T08:49:18;101371.50;;;7.30;50.97
50684;BME280;36654;45.042;38.994;2023-03-03T08:51:44;101371.13;;;7.45;51.02
50684;BME280;36654;45.042;38.994;2023-03-03T08:54:09;101378.50;;;7.55;50.96
50684;BME280;36654;45.042;38.994;2023-03-03T08:56:35;101297.97;;;7.39;50.92
50684;BME280;36654;45.042;38.994;2023-03-03T08:59:00;101354.88;;;7.85;50.67
50684;BME280;36654;45.042;38.994;2023-03-03T09:01:26;101340.84;;;7.86;50.38
50684;BME280;36654;45.042;38.994;2023-03-03T09:03:52;101356.00;;;7.93;50.23
50684;BME280;36654;45.042;38.994;2023-03-03T09:06:17;101341.97;;;7.94;50.29
50684;BME280;36654;45.042;38.994;2023-03-03T09:08:43;101338.75;;;8.05;50.31
50684;BME280;36654;45.042;38.994;2023-03-03T09:11:12;101331.97;;;8.13;50.46
50684;BME280;36654;45.042;38.994;2023-03-03T09:13:39;101331.41;;;8.23;50.61
50684;BME280;36654;45.042;38.994;2023-03-03T09:16:15;101328.94;;;8.29;50.07
50684;BME280;36654;45.042;38.994;2023-03-03T09:18:41;101303.44;;;8.30;50.06
50684;BME280;36654;45.042;38.994;2023-03-03T09:21:25;101317.16;;;8.47;50.26
50684;BME280;36654;45.042;38.994;2023-03-03T09:23:58;101296.38;;;8.59;49.78
50684;BME280;36654;45.042;38.994;2023-03-03T09:26:29;101303.88;;;8.75;49.21
50684;BME280;36654;45.042;38.994;2023-03-03T09:31:44;101275.25;;;8.59;49.37
50684;BME280;36654;45.042;38.994;2023-03-03T09:34:35;101286.31;;;8.77;49.64
50684;BME280;36654;45.042;38.994;2023-03-03T09:37:56;101276.31;;;8.99;49.81
50684;BME280;36654;45.042;38.994;2023-03-03T09:39:57;101272.88;;;9.03;49.15
50684;BME280;36654;45.042;38.994;2023-03-03T09:43:03;101269.28;;;9.01;49.75
50684;BME280;36654;45.042;38.994;2023-03-03T09:46:20;101263.94;;;8.98;49.54
50684;BME280;36654;45.042;38.994;2023-03-03T09:48:47;101258.56;;;8.95;49.30
50684;BME280;36654;45.042;38.994;2023-03-03T09:51:29;101246.97;;;8.90;49.18
50684;BME280;36654;45.042;38.994;2023-03-03T09:56:32;101233.81;;;8.93;49.42
50684;BME280;36654;45.042;38.994;2023-03-03T09:59:28;101235.53;;;8.91;49.51
50684;BME280;36654;45.042;38.994;2023-03-03T10:13:08;101215.19;;;8.88;49.73
50684;BME280;36654;45.042;38.994;2023-03-03T10:18:28;101199.13;;;8.79;50.30
50684;BME280;36654;45.042;38.994;2023-03-03T10:23:48;101187.53;;;8.74;50.67
50684;BME280;36654;45.042;38.994;2023-03-03T10:29:34;101181.09;;;8.64;50.59
50684;BME280;36654;45.042;38.994;2023-03-03T10:38:14;101162.75;;;8.70;51.28
50684;BME280;36654;45.042;38.994;2023-03-03T10:44:15;101152.41;;;8.79;51.37
50684;BME280;36654;45.042;38.994;2023-03-03T11:00:28;101125.28;;;9.24;49.78
50684;BME280;36654;45.042;38.994;2023-03-03T11:06:05;101120.28;;;9.37;49.39
50684;BME280;36654;45.042;38.994;2023-03-03T11:08:35;101121.28;;;9.43;49.39
50684;BME280;36654;45.042;38.994;2023-03-03T11:14:11;101111.94;;;9.59;48.66
50684;BME280;36654;45.042;38.994;2023-03-03T11:24:36;101070.75;;;9.74;47.78
50684;BME280;36654;45.042;38.994;2023-03-03T11:34:01;101041.84;;;9.86;47.55
50684;BME280;36654;45.042;38.994;2023-03-03T11:36:44;101075.94;;;10.14;46.85
50684;BME280;36654;45.042;38.994;2023-03-03T11:39:17;101069.81;;;10.17;46.60
50684;BME280;36654;45.042;38.994;2023-03-03T11:42:08;101066.38;;;10.23;46.35
50684;BME280;36654;45.042;38.994;2023-03-03T11:44:51;101058.47;;;10.26;46.74
50684;BME280;36654;45.042;38.994;2023-03-03T11:47:41;101059.47;;;10.29;46.12
50684;BME280;36654;45.042;38.994;2023-03-03T11:50:22;101051.59;;;10.34;46.27
50684;BME280;36654;45.042;38.994;2023-03-03T12:11:20;101012.31;;;10.13;46.10
50684;BME280;36654;45.042;38.994;2023-03-03T12:14:01;101032.81;;;10.23;46.03
50684;BME280;36654;45.042;38.994;2023-03-03T12:24:43;101010.97;;;10.35;45.77
50684;BME280;36654;45.042;38.994;2023-03-03T12:27:20;100993.50;;;10.46;45.70
50684;BME280;36654;45.042;38.994;2023-03-03T12:47:37;100978.38;;;11.01;44.85
50684;BME280;36654;45.042;38.994;2023-03-03T13:04:02;100975.97;;;11.21;43.88
50684;BME280;36654;45.042;38.994;2023-03-03T13:14:55;100971.69;;;11.34;43.35
50684;BME280;36654;45.042;38.994;2023-03-03T13:19:58;100954.00;;;11.33;43.14
50684;BME280;36654;45.042;38.994;2023-03-03T13:22:58;100964.56;;;11.30;43.28
50684;BME280;36654;45.042;38.994;2023-03-03T13:30:48;100958.34;;;11.27;42.69
50684;BME280;36654;45.042;38.994;2023-03-03T13:33:29;100969.81;;;11.26;42.98
50684;BME280;36654;45.042;38.994;2023-03-03T13:36:12;100964.50;;;11.24;43.01
50684;BME280;36654;45.042;38.994;2023-03-03T13:38:47;100954.72;;;11.20;42.96
50684;BME280;36654;45.042;38.994;2023-03-03T13:41:43;100953.88;;;11.21;43.22
50684;BME280;36654;45.042;38.994;2023-03-03T13:44:21;100962.69;;;11.20;42.92
50684;BME280;36654;45.042;38.994;2023-03-03T13:46:54;100953.81;;;11.18;43.00
50684;BME280;36654;45.042;38.994;2023-03-03T13:52:08;100960.78;;;11.10;43.01
50684;BME280;36654;45.042;38.994;2023-03-03T14:05:40;100970.38;;;10.98;43.13
50684;BME280;36654;45.042;38.994;2023-03-03T14:13:26;100952.50;;;10.85;42.87
50684;BME280;36654;45.042;38.994;2023-03-03T14:18:41;100962.25;;;10.86;43.00
50684;BME280;36654;45.042;38.994;2023-03-03T14:21:18;100953.28;;;10.78;42.90
50684;BME280;36654;45.042;38.994;2023-03-03T14:24:10;100961.25;;;10.78;43.10
50684;BME280;36654;45.042;38.994;2023-03-03T14:26:53;100948.78;;;10.72;43.24
50684;BME280;36654;45.042;38.994;2023-03-03T14:32:01;100897.06;;;10.38;43.48
50684;BME280;36654;45.042;38.994;2023-03-03T14:34:40;100953.19;;;10.69;43.30
50684;BME280;36654;45.042;38.994;2023-03-03T14:37:25;100946.84;;;10.59;43.41
50684;BME280;36654;45.042;38.994;2023-03-03T14:42:39;100892.50;;;10.28;43.50
50684;BME280;36654;45.042;38.994;2023-03-03T14:45:29;100955.72;;;10.63;43.73
50684;BME280;36654;45.042;38.994;2023-03-03T14:47:56;100960.09;;;10.61;43.69
50684;BME280;36654;45.042;38.994;2023-03-03T14:50:36;100960.09;;;10.61;43.88
50684;BME280;36654;45.042;38.994;2023-03-03T14:53:09;100963.59;;;10.56;43.98
50684;BME280;36654;45.042;38.994;2023-03-03T14:55:38;100960.00;;;10.51;43.82
50684;BME280;36654;45.042;38.994;2023-03-03T14:58:07;100954.69;;;10.51;44.10
50684;BME280;36654;45.042;38.994;2023-03-03T15:00:48;100934.13;;;10.35;43.80
50684;BME280;36654;45.042;38.994;2023-03-03T15:03:42;100951.00;;;10.43;43.92
50684;BME280;36654;45.042;38.994;2023-03-03T15:06:10;100947.28;;;10.29;43.96
50684;BME280;36654;45.042;38.994;2023-03-03T15:08:41;100909.81;;;10.07;44.26
50684;BME280;36654;45.042;38.994;2023-03-03T15:11:27;100962.41;;;10.36;44.11
50684;BME280;36654;45.042;38.994;2023-03-03T15:14:15;100962.38;;;10.34;44.41
50684;BME280;36654;45.042;38.994;2023-03-03T15:16:42;100953.31;;;10.23;44.43
50684;BME280;36654;45.042;38.994;2023-03-03T15:19:21;100962.34;;;10.31;44.67
50684;BME280;36654;45.042;38.994;2023-03-03T15:22:04;100905.19;;;9.94;44.37
50684;BME280;36654;45.042;38.994;2023-03-03T15:24:47;100947.91;;;10.14;44.41
50684;BME280;36654;45.042;38.994;2023-03-03T15:27:41;100960.44;;;10.26;44.56
50684;BME280;36654;45.042;38.994;2023-03-03T15:32:51;100959.47;;;10.21;44.72
50684;BME280;36654;45.042;38.994;2023-03-03T15:37:59;100958.50;;;10.15;44.88
50684;BME280;36654;45.042;38.994;2023-03-03T15:43:14;100920.91;;;9.85;45.19
50684;BME280;36654;45.042;38.994;2023-03-03T15:45:55;100962.75;;;10.04;45.16
50684;BME280;36654;45.042;38.994;2023-03-03T15:56:57;100989.00;;;9.92;45.79
50684;BME280;36654;45.042;38.994;2023-03-03T16:07:57;100972.16;;;9.87;46.31
50684;BME280;36654;45.042;38.994;2023-03-03T16:13:36;100978.22;;;9.81;46.50
50684;BME280;36654;45.042;38.994;2023-03-03T16:21:14;100976.28;;;9.72;46.60
50684;BME280;36654;45.042;38.994;2023-03-03T16:23:47;100982.31;;;9.64;46.24
50684;BME280;36654;45.042;38.994;2023-03-03T16:26:38;100982.44;;;9.70;46.05
50684;BME280;36654;45.042;38.994;2023-03-03T16:32:13;100976.13;;;9.63;45.15
50684;BME280;36654;45.042;38.994;2023-03-03T16:35:11;100981.41;;;9.62;45.44
50684;BME280;36654;45.042;38.994;2023-03-03T16:37:55;100993.84;;;9.67;44.54
50684;BME280;36654;45.042;38.994;2023-03-03T16:43:03;100968.66;;;9.42;44.68
50684;BME280;36654;45.042;38.994;2023-03-03T16:45:33;100985.66;;;9.54;44.59
50684;BME280;36654;45.042;38.994;2023-03-03T16:48:25;100945.38;;;9.24;44.71
50684;BME280;36654;45.042;38.994;2023-03-03T16:51:22;100988.94;;;9.42;44.82
50684;BME280;36654;45.042;38.994;2023-03-03T16:54:09;101000.41;;;9.42;44.78
50684;BME280;36654;45.042;38.994;2023-03-03T16:56:50;101001.09;;;9.32;45.26
50684;BME280;36654;45.042;38.994;2023-03-03T17:02:11;101003.59;;;9.24;45.41
50684;BME280;36654;45.042;38.994;2023-03-03T17:04:48;100955.34;;;8.94;45.37
50684;BME280;36654;45.042;38.994;2023-03-03T17:13:20;100938.31;;;8.81;45.49
50684;BME280;36654;45.042;38.994;2023-03-03T17:16:20;100968.53;;;8.92;45.74
50684;BME280;36654;45.042;38.994;2023-03-03T17:19:05;100985.47;;;9.02;45.59
50684;BME280;36654;45.042;38.994;2023-03-03T17:32:47;100990.50;;;8.90;46.16
50684;BME280;36654;45.042;38.994;2023-03-03T17:35:42;100979.88;;;8.87;46.08